createdAt,value
2018-11-22T12:17:04.225Z,7.95
2018-11-22T12:19:32.544Z,9.08
2018-11-22T12:22:00.849Z,12.83
2018-11-22T12:24:29.488Z,15.79
2018-11-22T12:26:57.805Z,16.83
2018-11-22T12:29:26.109Z,18.97
2018-11-22T12:31:54.421Z,18.23
2018-11-22T12:34:24.525Z,17.07
2018-11-22T12:37:00.922Z,18.48
2018-11-22T12:39:29.784Z,17.89
2018-11-22T12:41:58.104Z,17.39
2018-11-22T12:44:26.424Z,18.49
2018-11-22T12:46:54.727Z,18.01
2018-11-22T12:49:23.052Z,17.75
2018-11-22T12:51:51.341Z,18.10
2018-11-22T12:54:19.660Z,16.89
2018-11-22T12:56:47.968Z,17.79
2018-11-22T12:59:16.349Z,19.14
2018-11-22T13:01:44.662Z,17.38
2018-11-22T13:04:12.994Z,18.31
2018-11-22T13:06:41.304Z,16.75
2018-11-22T13:09:09.753Z,16.86
2018-11-22T13:11:38.077Z,16.42
2018-11-22T13:14:06.405Z,15.52
2018-11-22T13:16:34.696Z,13.45
2018-11-22T13:19:03.034Z,13.85
2018-11-22T13:21:31.342Z,15.23
2018-11-22T13:23:59.834Z,15.87
2018-11-22T13:26:28.140Z,15.22
2018-11-22T13:28:56.865Z,15.09
2018-11-22T13:31:25.150Z,15.32
2018-11-22T13:33:53.701Z,14.71
2018-11-22T13:36:22.284Z,16.50
2018-11-22T13:38:50.586Z,16.41
2018-11-22T13:41:18.906Z,15.48
2018-11-22T13:43:47.221Z,15.30
2018-11-22T13:46:15.529Z,14.97
2018-11-22T13:48:43.840Z,14.44
2018-11-22T13:51:12.151Z,15.54
2018-11-22T13:53:40.464Z,16.44
2018-11-22T13:56:08.776Z,14.99
2018-11-22T13:58:37.066Z,14.62
2018-11-22T14:01:05.420Z,14.68
2018-11-22T14:03:33.706Z,13.68
2018-11-22T14:06:02.033Z,14.28
2018-11-22T14:08:30.337Z,13.94
2018-11-22T14:10:58.763Z,12.87
2018-11-22T14:13:26.977Z,12.67
2018-11-22T14:15:55.340Z,12.13
2018-11-22T14:18:23.652Z,11.97
2018-11-22T14:20:51.956Z,11.58
2018-11-22T14:23:20.240Z,12.02
2018-11-22T14:25:49.164Z,11.07
2018-11-22T14:28:16.904Z,11.36
2018-11-22T14:30:45.219Z,11.40
2018-11-22T14:33:13.579Z,10.62
2018-11-22T14:35:41.907Z,10.28
2018-11-22T14:38:10.208Z,10.36
2018-11-22T14:40:38.512Z,10.33
2018-11-22T14:43:06.809Z,9.83
2018-11-22T14:45:35.120Z,9.30
2018-11-22T14:48:04.219Z,9.34
2018-11-22T14:50:38.572Z,8.25
2018-11-22T14:53:09.370Z,7.73
2018-11-22T14:55:37.864Z,7.39
2018-11-22T14:58:06.389Z,6.77
2018-11-22T15:00:34.696Z,5.88
2018-11-22T15:03:03.042Z,5.74
2018-11-22T15:05:31.534Z,5.37
2018-11-22T15:08:00.232Z,4.68
2018-11-22T15:10:28.532Z,4.33
2018-11-22T15:12:56.842Z,3.91
2018-11-22T15:15:26.196Z,3.58
2018-11-22T15:17:54.500Z,3.30
2018-11-22T15:20:22.849Z,3.20
2018-11-22T15:22:52.096Z,3.17
2018-11-22T15:25:23.794Z,2.93
2018-11-22T15:27:52.179Z,2.76
2018-11-22T15:30:25.628Z,2.60
2018-11-22T15:32:54.024Z,2.44
2018-11-22T15:35:23.580Z,2.24
2018-11-22T15:37:52.230Z,2.34
2018-11-22T15:40:21.815Z,2.23
2018-11-22T15:42:52.332Z,2.18
2018-11-22T15:45:21.996Z,2.07
2018-11-22T15:47:50.297Z,1.86
2018-11-22T15:50:19.922Z,1.83
2018-11-22T15:52:48.236Z,1.70
2018-11-22T15:55:20.960Z,1.79
2018-11-22T15:57:47.145Z,1.66
2018-11-22T16:00:18.969Z,1.64
2018-11-22T16:02:47.889Z,1.65
2018-11-22T16:05:16.643Z,1.47
2018-11-22T16:07:44.975Z,1.61
2018-11-22T16:10:16.561Z,1.55
2018-11-22T16:12:45.852Z,1.51
2018-11-22T16:15:15.986Z,1.55
2018-11-22T16:17:44.320Z,1.65
2018-11-22T16:20:12.621Z,1.74
2018-11-22T16:22:41.057Z,1.72
2018-11-22T16:25:10.710Z,1.70
2018-11-22T16:27:39.168Z,1.55
2018-11-22T16:30:13.405Z,1.42
2018-11-22T16:32:42.722Z,1.54
2018-11-22T16:35:12.681Z,1.70
2018-11-22T16:37:41.916Z,1.73
2018-11-22T16:40:12.490Z,1.77
2018-11-22T16:42:41.709Z,1.74
2018-11-22T16:45:17.590Z,1.63
2018-11-22T16:47:46.248Z,1.47
2018-11-22T16:50:15.820Z,1.42
2018-11-22T16:52:43.613Z,1.36
2018-11-22T16:55:12.376Z,1.34
2018-11-22T16:57:41.557Z,1.18
2018-11-22T17:00:14.980Z,1.12
2018-11-22T17:02:44.086Z,1.13
2018-11-22T17:05:14.104Z,1.15
2018-11-22T17:07:44.010Z,1.14
2018-11-22T17:10:14.244Z,1.11
2018-11-22T17:12:42.997Z,1.04
2018-11-22T17:15:13.665Z,1.03
2018-11-22T17:17:42.123Z,1.05
2018-11-22T17:20:12.285Z,0.97
2018-11-22T17:22:41.236Z,0.91
2018-11-22T17:25:12.713Z,0.90
2018-11-22T17:27:41.585Z,0.89
2018-11-22T17:30:13.172Z,0.92
2018-11-22T17:32:42.158Z,0.88
2018-11-22T17:35:12.826Z,0.88
2018-11-22T17:37:41.125Z,0.86
2018-11-22T17:40:11.873Z,0.73
2018-11-22T17:42:40.212Z,0.84
2018-11-22T17:45:10.420Z,0.80
2018-11-22T17:47:38.936Z,0.80
2018-11-22T17:50:09.377Z,0.75
2018-11-22T17:52:37.669Z,0.77
2018-11-22T17:55:09.960Z,0.80
2018-11-22T17:57:38.564Z,0.83
2018-11-22T18:00:16.785Z,0.79
2018-11-22T18:02:46.297Z,0.84
2018-11-22T18:05:14.620Z,0.79
2018-11-22T18:07:42.918Z,0.75
2018-11-22T18:10:13.477Z,0.78
2018-11-22T18:12:42.965Z,0.68
2018-11-22T18:15:12.689Z,0.77
2018-11-22T18:17:41.017Z,0.74
2018-11-22T18:20:11.440Z,0.66
2018-11-22T18:22:39.987Z,0.76
2018-11-22T18:25:10.181Z,0.65
2018-11-22T18:27:38.575Z,0.61
2018-11-22T18:30:10.462Z,0.69
2018-11-22T18:32:38.777Z,0.62
2018-11-22T18:35:08.457Z,0.61
2018-11-22T18:37:36.814Z,0.54
2018-11-22T18:40:05.654Z,0.50
2018-11-22T18:42:34.000Z,0.50
2018-11-22T18:45:02.317Z,0.46
2018-11-22T18:47:30.620Z,0.53
2018-11-22T18:49:58.921Z,0.51
2018-11-22T18:52:27.200Z,0.54
2018-11-22T18:54:55.499Z,0.51
2018-11-22T18:57:23.826Z,0.49
2018-11-22T18:59:52.169Z,0.46
2018-11-22T19:02:20.473Z,0.43
2018-11-22T19:04:48.792Z,0.37
2018-11-22T19:07:17.092Z,0.26
2018-11-22T19:09:45.424Z,0.30
2018-11-22T19:12:13.728Z,0.31
2018-11-22T19:14:42.060Z,0.28
2018-11-22T19:17:10.368Z,0.16
2018-11-22T19:19:38.680Z,0.13
2018-11-22T19:22:07.007Z,0.14
2018-11-22T19:24:35.328Z,0.13
2018-11-22T19:27:03.631Z,0.05
2018-11-22T19:29:32.028Z,-0.06
2018-11-22T19:32:00.362Z,-0.12
2018-11-22T19:34:28.684Z,-0.03
2018-11-22T19:36:56.981Z,0.05
2018-11-22T19:39:25.329Z,0.00
2018-11-22T19:41:57.858Z,-0.06
2018-11-22T19:44:33.478Z,-0.15
2018-11-22T19:47:10.841Z,-0.29
2018-11-22T19:49:39.497Z,-0.21
2018-11-22T19:52:07.805Z,-0.15
2018-11-22T19:54:36.137Z,-0.12
2018-11-22T19:57:04.473Z,-0.02
2018-11-22T19:59:32.832Z,-0.05
2018-11-22T20:02:01.134Z,-0.15
2018-11-22T20:04:29.464Z,-0.26
2018-11-22T20:06:57.756Z,-0.32
2018-11-22T20:09:26.089Z,-0.33
2018-11-22T20:11:54.389Z,-0.49
2018-11-22T20:14:22.725Z,-0.54
2018-11-22T20:16:51.017Z,-0.46
2018-11-22T20:19:19.332Z,-0.59
2018-11-22T20:21:47.853Z,-0.65
2018-11-22T20:24:16.149Z,-0.85
2018-11-22T20:26:44.444Z,-0.86
2018-11-22T20:29:12.772Z,-1.06
2018-11-22T20:31:42.058Z,-1.05
2018-11-22T20:34:10.377Z,-1.02
2018-11-22T20:36:38.656Z,-1.05
2018-11-22T20:39:10.401Z,-1.05
2018-11-22T20:41:38.900Z,-0.88
2018-11-22T20:44:07.492Z,-0.79
2018-11-22T20:46:35.797Z,-0.75
2018-11-22T20:49:04.195Z,-0.68
2018-11-22T20:51:32.512Z,-0.66
2018-11-22T20:54:00.948Z,-0.66
2018-11-22T20:56:29.273Z,-0.61
2018-11-22T20:58:57.593Z,-0.74
2018-11-22T21:01:25.944Z,-0.89
2018-11-22T21:03:54.432Z,-0.60
2018-11-22T21:06:22.841Z,-0.58
2018-11-22T21:08:51.149Z,-0.59
2018-11-22T21:11:19.479Z,-0.52
2018-11-22T21:13:47.816Z,-0.43
2018-11-22T21:16:16.150Z,-0.50
2018-11-22T21:18:44.493Z,-0.55
2018-11-22T21:21:12.816Z,-0.60
2018-11-22T21:23:41.144Z,-0.44
2018-11-22T21:26:14.437Z,-0.46
2018-11-22T21:28:37.849Z,-0.54
2018-11-22T21:31:06.208Z,-0.49
2018-11-22T21:33:34.767Z,-0.55
2018-11-22T21:36:02.894Z,-0.67
2018-11-22T21:38:31.212Z,-0.67
2018-11-22T21:40:59.564Z,-0.49
2018-11-22T21:43:27.869Z,-0.64
2018-11-22T21:45:56.200Z,-0.64
2018-11-22T21:48:24.500Z,-0.49
2018-11-22T21:50:52.820Z,-0.60
2018-11-22T21:53:21.128Z,-0.76
2018-11-22T21:55:49.456Z,-0.79
2018-11-22T21:58:17.776Z,-0.74
2018-11-22T22:00:46.112Z,-0.69
2018-11-22T22:03:14.409Z,-0.68
2018-11-22T22:05:42.841Z,-0.74
2018-11-22T22:08:11.189Z,-0.81
2018-11-22T22:10:39.547Z,-0.89
2018-11-22T22:13:07.917Z,-0.79
2018-11-22T22:15:37.088Z,-1.09
2018-11-22T22:18:06.487Z,-1.27
2018-11-22T22:20:35.713Z,-1.36
2018-11-22T22:23:04.072Z,-1.38
2018-11-22T22:25:32.536Z,-1.36
2018-11-22T22:28:01.285Z,-1.39
2018-11-22T22:30:31.885Z,-1.50
2018-11-22T22:33:01.806Z,-1.55
2018-11-22T22:35:30.161Z,-1.60
2018-11-22T22:37:58.464Z,-1.55
2018-11-22T22:40:27.956Z,-1.52
2018-11-22T22:42:57.049Z,-1.34
2018-11-22T22:45:26.441Z,-1.49
2018-11-22T22:47:54.872Z,-1.63
2018-11-22T22:50:24.322Z,-1.70
2018-11-22T22:52:53.905Z,-1.65
2018-11-22T22:55:22.249Z,-1.73
2018-11-22T22:57:50.634Z,-1.75
2018-11-22T23:00:25.050Z,-1.88
2018-11-22T23:02:54.744Z,-1.88
2018-11-22T23:05:23.753Z,-2.02
2018-11-22T23:07:52.712Z,-1.96
2018-11-22T23:10:21.496Z,-2.09
2018-11-22T23:12:49.808Z,-2.06
2018-11-22T23:15:18.886Z,-2.24
2018-11-22T23:17:47.651Z,-2.18
2018-11-22T23:20:18.535Z,-2.24
2018-11-22T23:22:47.269Z,-2.30
2018-11-22T23:25:16.173Z,-2.25
2018-11-22T23:27:44.505Z,-2.22
2018-11-22T23:30:17.413Z,-2.20
2018-11-22T23:32:46.884Z,-2.09
2018-11-22T23:35:15.325Z,-2.07
2018-11-22T23:37:43.950Z,-2.05
2018-11-22T23:40:14.571Z,-2.10
2018-11-22T23:42:43.169Z,-2.20
2018-11-22T23:45:12.676Z,-2.13
2018-11-22T23:47:41.416Z,-2.11
2018-11-22T23:50:11.993Z,-2.12
2018-11-22T23:52:40.720Z,-2.12
2018-11-22T23:55:09.469Z,-2.09
2018-11-22T23:57:37.892Z,-2.08
